createdAt,value
2019-02-09T00:02:51.240Z,4.98
2019-02-09T00:07:59.294Z,4.66
2019-02-09T00:13:07.861Z,4.94
2019-02-09T00:18:16.025Z,5.90
2019-02-09T00:23:24.636Z,5.26
2019-02-09T00:28:32.750Z,5.88
2019-02-09T00:33:40.829Z,4.60
2019-02-09T00:38:48.911Z,4.60
2019-02-09T00:43:57.044Z,5.61
2019-02-09T00:49:05.138Z,5.38
2019-02-09T00:54:13.229Z,5.07
2019-02-09T00:59:21.301Z,5.38
2019-02-09T01:04:29.375Z,6.18
2019-02-09T01:09:37.426Z,6.16
2019-02-09T01:14:45.526Z,5.51
2019-02-09T01:19:53.601Z,6.31
2019-02-09T01:25:01.641Z,5.25
2019-02-09T01:30:09.761Z,5.19
2019-02-09T01:35:17.822Z,5.26
2019-02-09T01:40:25.802Z,5.11
2019-02-09T01:45:33.760Z,5.56
2019-02-09T01:50:41.818Z,5.94
2019-02-09T01:55:49.995Z,5.31
2019-02-09T02:00:58.041Z,5.30
2019-02-09T02:06:06.149Z,5.45
2019-02-09T02:11:14.149Z,7.01
2019-02-09T02:16:22.107Z,5.70
2019-02-09T02:21:30.265Z,5.40
2019-02-09T02:26:38.393Z,5.55
2019-02-09T02:31:46.508Z,5.11
2019-02-09T02:36:54.608Z,4.29
2019-02-09T02:42:02.660Z,5.79
2019-02-09T02:47:10.781Z,5.41
2019-02-09T02:52:18.730Z,5.99
2019-02-09T02:57:26.725Z,6.07
2019-02-09T03:02:34.660Z,5.78
2019-02-09T03:07:42.753Z,4.99
2019-02-09T03:12:50.857Z,4.70
2019-02-09T03:17:58.808Z,5.26
2019-02-09T03:23:06.840Z,4.04
2019-02-09T03:28:14.786Z,4.55
2019-02-09T03:33:22.757Z,5.29
2019-02-09T03:38:30.705Z,5.86
2019-02-09T03:43:38.702Z,4.37
2019-02-09T03:48:46.687Z,3.86
2019-02-09T03:53:54.683Z,4.10
2019-02-09T03:59:02.693Z,4.67
2019-02-09T04:04:10.692Z,5.33
2019-02-09T04:09:18.631Z,4.99
2019-02-09T04:14:26.577Z,4.18
2019-02-09T04:19:34.530Z,4.96
2019-02-09T04:24:42.440Z,4.05
2019-02-09T04:29:50.483Z,4.85
2019-02-09T04:34:58.589Z,4.68
2019-02-09T04:40:06.653Z,4.97
2019-02-09T04:45:14.872Z,5.32
2019-02-09T04:50:22.902Z,5.44
2019-02-09T04:55:31.441Z,4.41
2019-02-09T05:00:39.564Z,5.77
2019-02-09T05:05:47.701Z,5.04
2019-02-09T05:10:55.907Z,5.78
2019-02-09T05:16:04.036Z,4.60
2019-02-09T05:21:12.199Z,4.16
2019-02-09T05:26:20.354Z,4.40
2019-02-09T05:31:28.523Z,4.44
2019-02-09T05:36:36.692Z,4.24
2019-02-09T05:41:44.717Z,4.65
2019-02-09T05:46:52.916Z,5.92
2019-02-09T05:52:00.997Z,5.46
2019-02-09T05:57:09.275Z,5.95
2019-02-09T06:02:17.269Z,5.47
2019-02-09T06:07:25.507Z,8.30
2019-02-09T06:12:33.500Z,5.54
2019-02-09T06:17:41.743Z,5.23
2019-02-09T06:22:49.844Z,5.55
2019-02-09T06:27:58.016Z,5.00
2019-02-09T06:33:06.301Z,5.06
2019-02-09T06:38:14.420Z,4.72
2019-02-09T06:43:22.456Z,5.21
2019-02-09T06:48:30.597Z,3.79
2019-02-09T06:53:37.122Z,4.42
2019-02-09T06:58:45.188Z,6.26
2019-02-09T07:03:53.204Z,6.13
2019-02-09T07:09:01.350Z,8.09
2019-02-09T07:14:09.420Z,8.74
2019-02-09T07:19:17.787Z,9.10
2019-02-09T07:24:26.124Z,8.46
2019-02-09T07:29:34.709Z,7.45
2019-02-09T07:34:43.047Z,8.40
2019-02-09T07:39:51.451Z,7.87
2019-02-09T07:44:59.594Z,6.15
2019-02-09T07:50:08.104Z,6.60
2019-02-09T07:55:16.381Z,6.67
2019-02-09T08:00:24.887Z,6.03
2019-02-09T08:05:33.129Z,5.82
2019-02-09T08:10:41.445Z,5.43
2019-02-09T08:15:49.922Z,5.19
2019-02-09T08:20:58.149Z,6.25
2019-02-09T08:26:06.572Z,5.08
2019-02-09T08:31:14.978Z,5.38
2019-02-09T08:36:23.171Z,5.18
2019-02-09T08:41:31.328Z,5.40
2019-02-09T08:46:39.662Z,5.29
2019-02-09T08:51:47.897Z,5.45
2019-02-09T08:56:55.973Z,6.67
2019-02-09T09:02:04.181Z,7.21
2019-02-09T09:07:12.260Z,7.03
2019-02-09T09:12:20.389Z,7.32
2019-02-09T09:17:28.510Z,8.09
2019-02-09T09:22:36.682Z,7.68
2019-02-09T09:27:44.821Z,9.05
2019-02-09T09:32:53.660Z,9.99
2019-02-09T09:38:01.769Z,7.19
2019-02-09T09:43:09.881Z,9.49
2019-02-09T09:48:18.056Z,8.08
2019-02-09T09:53:26.329Z,7.25
2019-02-09T09:58:34.566Z,8.96
2019-02-09T10:03:42.776Z,8.38
2019-02-09T10:08:49.594Z,9.50
2019-02-09T10:13:57.739Z,7.97
2019-02-09T10:19:05.923Z,8.73
2019-02-09T10:24:14.057Z,9.25
2019-02-09T10:29:22.065Z,8.67
2019-02-09T10:34:30.273Z,9.32
2019-02-09T10:39:38.485Z,8.55
2019-02-09T10:44:46.804Z,8.49
2019-02-09T10:49:54.861Z,9.59
2019-02-09T10:55:02.941Z,7.82
2019-02-09T11:00:10.996Z,8.68
2019-02-09T11:05:19.335Z,7.64
2019-02-09T11:10:27.593Z,9.01
2019-02-09T11:15:35.766Z,9.46
2019-02-09T11:20:42.277Z,11.29
2019-02-09T11:25:50.573Z,9.74
2019-02-09T11:30:58.955Z,11.13
2019-02-09T11:36:07.045Z,10.26
2019-02-09T11:41:14.986Z,11.86
2019-02-09T11:46:23.237Z,10.02
2019-02-09T11:51:31.397Z,9.91
2019-02-09T11:56:39.999Z,12.63
2019-02-09T12:01:48.161Z,12.23
2019-02-09T12:06:57.076Z,10.52
2019-02-09T12:12:05.339Z,12.06
2019-02-09T12:17:13.569Z,13.67
2019-02-09T12:22:21.813Z,11.59
2019-02-09T12:27:30.175Z,11.97
2019-02-09T12:32:38.150Z,12.15
2019-02-09T12:37:46.550Z,11.71
2019-02-09T12:42:54.595Z,11.42
2019-02-09T12:48:02.789Z,10.22
2019-02-09T12:53:09.418Z,10.09
2019-02-09T12:58:17.545Z,11.91
2019-02-09T13:03:30.957Z,9.12
2019-02-09T13:08:33.415Z,9.72
2019-02-09T13:13:41.872Z,9.23
2019-02-09T13:18:50.131Z,10.94
2019-02-09T13:23:58.224Z,9.34
2019-02-09T13:29:06.409Z,9.86
2019-02-09T13:34:14.885Z,8.74
2019-02-09T13:39:22.976Z,8.37
2019-02-09T13:44:31.148Z,8.08
2019-02-09T13:49:39.337Z,15.46
2019-02-09T13:54:47.623Z,21.41
2019-02-09T13:59:55.977Z,13.86
2019-02-09T14:05:04.060Z,14.13
2019-02-09T14:10:12.475Z,11.49
2019-02-09T14:15:20.613Z,10.40
2019-02-09T14:20:29.301Z,10.56
2019-02-09T14:25:37.974Z,9.37
2019-02-09T14:30:46.362Z,5.90
2019-02-09T14:35:54.404Z,5.54
2019-02-09T14:41:02.634Z,7.35
2019-02-09T14:46:10.826Z,8.27
2019-02-09T14:51:19.400Z,9.05
2019-02-09T14:56:27.457Z,7.93
2019-02-09T15:01:37.262Z,9.12
2019-02-09T15:06:45.477Z,8.28
2019-02-09T15:11:53.675Z,9.10
2019-02-09T15:17:05.571Z,11.26
2019-02-09T15:22:09.181Z,9.18
2019-02-09T15:27:17.336Z,10.65
2019-02-09T15:32:25.308Z,13.09
2019-02-09T15:37:33.750Z,10.44
2019-02-09T15:42:42.201Z,11.17
2019-02-09T15:47:50.252Z,12.57
2019-02-09T15:52:58.781Z,12.72
2019-02-09T15:58:06.861Z,12.38
2019-02-09T16:03:15.072Z,11.72
2019-02-09T16:08:23.656Z,9.91
2019-02-09T16:13:35.833Z,11.50
2019-02-09T16:18:34.067Z,12.07
2019-02-09T16:23:42.375Z,10.70
2019-02-09T16:28:50.424Z,10.08
2019-02-09T16:33:58.778Z,10.36
2019-02-09T16:39:07.116Z,12.64
2019-02-09T16:44:15.218Z,10.38
2019-02-09T16:49:24.072Z,10.10
2019-02-09T16:54:32.585Z,10.87
2019-02-09T16:59:41.909Z,10.76
2019-02-09T17:04:50.706Z,13.25
2019-02-09T17:09:59.342Z,13.74
2019-02-09T17:15:08.193Z,11.90
2019-02-09T17:20:15.999Z,13.83
2019-02-09T17:25:24.306Z,13.56
2019-02-09T17:30:32.529Z,14.51
2019-02-09T17:35:40.498Z,13.78
2019-02-09T17:40:48.594Z,14.83
2019-02-09T17:45:56.661Z,14.44
2019-02-09T17:51:05.093Z,13.36
2019-02-09T17:56:13.601Z,13.63
2019-02-09T18:01:21.835Z,15.64
2019-02-09T18:06:30.047Z,14.63
2019-02-09T18:11:41.019Z,12.28
2019-02-09T18:16:46.600Z,15.13
2019-02-09T18:21:55.021Z,15.65
2019-02-09T18:27:03.309Z,14.14
2019-02-09T18:32:11.566Z,12.70
2019-02-09T18:37:19.719Z,14.96
2019-02-09T18:42:27.857Z,15.15
2019-02-09T18:47:36.202Z,13.55
2019-02-09T18:52:44.312Z,13.93
2019-02-09T18:57:52.707Z,12.85
2019-02-09T19:03:00.887Z,14.78
2019-02-09T19:08:09.142Z,15.78
2019-02-09T19:13:18.685Z,15.16
2019-02-09T19:18:27.160Z,14.54
2019-02-09T19:23:36.006Z,17.04
2019-02-09T19:28:44.142Z,15.25
2019-02-09T19:33:54.380Z,16.04
2019-02-09T19:38:52.485Z,20.76
2019-02-09T19:44:00.509Z,19.99
2019-02-09T19:49:08.648Z,14.27
2019-02-09T19:54:16.604Z,15.61
2019-02-09T19:59:24.570Z,19.21
2019-02-09T20:04:32.840Z,13.24
2019-02-09T20:09:40.865Z,13.35
2019-02-09T20:14:48.833Z,13.29
2019-02-09T20:19:56.937Z,14.21
2019-02-09T20:25:05.067Z,15.81
2019-02-09T20:30:13.175Z,15.80
2019-02-09T20:35:27.562Z,14.52
2019-02-09T20:40:29.148Z,14.93
2019-02-09T20:45:37.121Z,15.41
2019-02-09T20:50:45.146Z,16.17
2019-02-09T20:55:53.273Z,15.35
2019-02-09T21:01:01.418Z,14.40
2019-02-09T21:06:09.387Z,13.52
2019-02-09T21:11:17.369Z,13.40
2019-02-09T21:16:25.328Z,15.04
2019-02-09T21:21:33.316Z,16.11
2019-02-09T21:26:41.322Z,15.26
2019-02-09T21:31:49.453Z,13.16
2019-02-09T21:36:57.554Z,16.07
2019-02-09T21:42:05.642Z,15.82
2019-02-09T21:47:13.618Z,17.56
2019-02-09T21:52:21.633Z,16.16
2019-02-09T21:57:29.728Z,14.44
2019-02-09T22:02:42.622Z,14.48
2019-02-09T22:07:45.589Z,14.10
2019-02-09T22:12:54.526Z,12.95
2019-02-09T22:18:02.407Z,15.02
2019-02-09T22:23:10.582Z,13.92
2019-02-09T22:28:18.676Z,13.24
2019-02-09T22:33:26.913Z,14.38
2019-02-09T22:38:35.063Z,14.90
2019-02-09T22:43:43.318Z,14.35
2019-02-09T22:48:51.381Z,15.87
2019-02-09T22:53:59.474Z,15.91
2019-02-09T22:59:07.877Z,13.71
2019-02-09T23:04:15.845Z,16.15
2019-02-09T23:09:24.682Z,12.64
2019-02-09T23:14:32.681Z,13.83
2019-02-09T23:19:40.744Z,16.69
2019-02-09T23:24:49.065Z,15.75
2019-02-09T23:29:57.139Z,16.70
2019-02-09T23:55:15.346Z,14.97
